Accueil
METAR-TAF:

METAR-TAF

Aéroports :

Aéroport international Chhatrapati-Shivaji

Bombay, Inde

latitude: 19-07N, longitude: 072-51E, altitude: 8 m

Observation

Le bulletin a été fait il y a 19 minutes, à 16:30 UTC
Vent 6 kt de est/nord-est
Température 30°C
Humidité 62%
Pression 1013 hPa
Visibilité: 3000 m
brume sèche

METAR: VABB 211630Z 06006KT 3000 HZ NSC 30/22 Q1013 NOSIG

Heure: 22:19 (16:49 UTC)

Prévision

Le bulletin a été fait il y a 2 heures et 49 minutes, à 14:00 UTC
Prévision valable du 21 à 15 UTC au 21 à 24 UTC
Vent 6 kt de nord/nord-est
Visibilité: 2500 m
Nuages épars à une hauteur de 10000 ft
brume sèche
Evoluant progressivement
du 21 à 21 UTC au 21 à 23 UTC
Vent 6 kt de est

TAF: VABB 211400Z 2115/2124 02006KT 2500 HZ SCT100 BECMG 2121/2123 09006KT

Observations et prévisions météorologiques de plus de 4000 aéroports (messages METAR et TAF).

Les stations disponibles sont représentées par des disques jaunes et rouges sur la carte.

Passer la souris dessus pour voir le nom de la station.

Cliquer dessus pour voir les observations et prévisions météorologiques.

Pour changer de carte: cliquez sur les boutons verts avec une croix noire pour zoomer, sur le bouton vert avec un tiret pour effectuer un zoom arrière, ou sur les flèches vertes pour les cartes adjacentes.


METAR-TAF: